Time,TemperatureF,DewpointF,PressureIn,WindDirection,WindDirectionDegrees,WindSpeedMPH,WindSpeedGustMPH,Humidity,HourlyPrecipIn,Conditions,Clouds,dailyrainin,SoftwareType,DateUTC
2013-06-02 00:07:00,72.7,61.5,29.93,WNW,294,1.0,1.0,68,0.00,,,0.00,Wunderground v.1.15,2013-06-02 04:07:00,
2013-06-02 00:17:00,72.5,61.7,29.93,WNW,294,1.0,9.0,69,0.00,,,0.00,Wunderground v.1.15,2013-06-02 04:17:00,
2013-06-02 00:27:00,72.5,60.1,29.93,WNW,290,2.0,9.0,65,0.00,,,0.00,Wunderground v.1.15,2013-06-02 04:27:00,
2013-06-02 00:37:00,72.3,61.6,29.92,WNW,290,1.0,1.0,69,0.00,,,0.00,Wunderground v.1.15,2013-06-02 04:37:00,
2013-06-02 00:47:00,71.8,61.5,29.92,WNW,290,2.0,2.0,70,0.00,,,0.00,Wunderground v.1.15,2013-06-02 04:47:00,
2013-06-02 00:57:00,71.5,61.6,29.92,WNW,290,1.0,1.0,71,0.00,,,0.00,Wunderground v.1.15,2013-06-02 04:57:00,
2013-06-02 01:07:00,71.1,61.6,29.91,WNW,290,1.0,3.0,72,0.00,,,0.00,Wunderground v.1.15,2013-06-02 05:07:00,
2013-06-02 01:22:00,70.9,61.8,29.91,WNW,290,1.0,1.0,73,0.00,,,0.00,Wunderground v.1.15,2013-06-02 05:22:00,
2013-06-02 01:32:00,70.9,61.8,29.91,WNW,290,1.0,1.0,73,0.00,,,0.00,Wunderground v.1.15,2013-06-02 05:32:00,
2013-06-02 01:42:00,70.6,61.5,29.91,WNW,290,0.0,9.0,73,0.00,,,0.00,Wunderground v.1.15,2013-06-02 05:42:00,
2013-06-02 01:52:00,70.3,61.2,29.91,WNW,290,0.0,9.0,73,0.00,,,0.00,Wunderground v.1.15,2013-06-02 05:52:00,
2013-06-02 02:07:00,70.1,61.4,29.91,WNW,290,0.0,7.0,74,0.00,,,0.00,Wunderground v.1.15,2013-06-02 06:07:00,
2013-06-02 02:17:00,70.1,61.0,29.90,WNW,290,0.0,7.0,73,0.00,,,0.00,Wunderground v.1.15,2013-06-02 06:17:00,
2013-06-02 02:27:00,70.1,61.0,29.90,WNW,290,0.0,7.0,73,0.00,,,0.00,Wunderground v.1.15,2013-06-02 06:27:00,
2013-06-02 02:37:00,69.6,60.9,29.90,WNW,290,0.0,7.0,74,0.00,,,0.00,Wunderground v.1.15,2013-06-02 06:37:00,
2013-06-02 02:47:00,69.8,60.8,29.89,WNW,290,0.0,7.0,73,0.00,,,0.00,Wunderground v.1.15,2013-06-02 06:47:00,
2013-06-02 02:57:00,70.1,61.0,29.89,WNW,290,0.0,7.0,73,0.00,,,0.00,Wunderground v.1.15,2013-06-02 06:57:00,
2013-06-02 03:12:00,70.4,60.9,29.89,WNW,290,1.0,1.0,72,0.00,,,0.00,Wunderground v.1.15,2013-06-02 07:12:00,
2013-06-02 03:22:00,70.1,60.7,29.90,WNW,290,1.0,5.0,72,0.00,,,0.00,Wunderground v.1.15,2013-06-02 07:22:00,
2013-06-02 03:32:00,70.1,60.7,29.90,WNW,290,1.0,1.0,72,0.00,,,0.00,Wunderground v.1.15,2013-06-02 07:32:00,
2013-06-02 03:42:00,69.8,60.8,29.90,WNW,290,0.0,5.0,73,0.00,,,0.00,Wunderground v.1.15,2013-06-02 07:42:00,
2013-06-02 03:52:00,69.8,60.8,29.90,WNW,290,1.0,5.0,73,0.00,,,0.00,Wunderground v.1.15,2013-06-02 07:52:00,
2013-06-02 04:07:00,69.8,60.4,29.90,WNW,290,0.0,7.0,72,0.00,,,0.00,Wunderground v.1.15,2013-06-02 08:07:00,
2013-06-02 04:17:00,69.6,60.2,29.89,WNW,290,1.0,1.0,72,0.00,,,0.00,Wunderground v.1.15,2013-06-02 08:17:00,
2013-06-02 04:27:00,69.4,60.0,29.89,WNW,290,0.0,2.0,72,0.00,,,0.00,Wunderground v.1.15,2013-06-02 08:27:00,
2013-06-02 04:37:00,69.4,60.0,29.88,WNW,290,1.0,1.0,72,0.00,,,0.00,Wunderground v.1.15,2013-06-02 08:37:00,
2013-06-02 04:47:00,69.3,59.9,29.88,WNW,290,1.0,7.0,72,0.00,,,0.00,Wunderground v.1.15,2013-06-02 08:47:00,
2013-06-02 04:57:00,69.3,59.9,29.88,WNW,290,1.0,1.0,72,0.00,,,0.00,Wunderground v.1.15,2013-06-02 08:57:00,
2013-06-02 05:22:00,69.4,59.2,29.89,WNW,290,0.0,7.0,70,0.00,,,0.00,Wunderground v.1.15,2013-06-02 09:22:00,
2013-06-02 05:32:00,69.8,59.2,29.90,WNW,290,1.0,7.0,69,0.00,,,0.00,Wunderground v.1.15,2013-06-02 09:32:00,
2013-06-02 05:42:00,69.8,59.2,29.90,WNW,290,1.0,7.0,69,0.00,,,0.00,Wunderground v.1.15,2013-06-02 09:42:00,
2013-06-02 05:52:00,69.8,59.2,29.89,WNW,290,0.0,7.0,69,0.00,,,0.00,Wunderground v.1.15,2013-06-02 09:52:00,
2013-06-02 06:27:00,70.6,58.7,29.89,WNW,290,0.0,6.0,66,0.00,,,0.00,Wunderground v.1.15,2013-06-02 10:27:00,
2013-06-02 06:43:00,70.9,59.0,29.89,WNW,290,0.0,6.0,66,0.00,,,0.00,Wunderground v.1.15,2013-06-02 10:43:00,
2013-06-02 06:53:00,70.8,58.4,29.89,WNW,290,0.0,6.0,65,0.00,,,0.00,Wunderground v.1.15,2013-06-02 10:53:00,
2013-06-02 07:12:00,71.3,58.9,29.89,WNW,290,0.0,7.0,65,0.00,,,0.00,Wunderground v.1.15,2013-06-02 11:12:00,
2013-06-02 07:22:00,72.0,59.2,29.89,WNW,290,1.0,7.0,64,0.00,,,0.00,Wunderground v.1.15,2013-06-02 11:22:00,
2013-06-02 07:48:00,72.7,59.8,29.89,NW,304,1.0,1.0,64,0.00,,,0.00,Wunderground v.1.15,2013-06-02 11:48:00,
2013-06-02 07:58:00,73.0,59.7,29.89,NW,304,1.0,1.0,63,0.00,,,0.00,Wunderground v.1.15,2013-06-02 11:58:00,
2013-06-02 08:23:00,73.2,59.8,29.90,NW,304,2.0,14.0,63,0.00,,,0.00,Wunderground v.1.15,2013-06-02 12:23:00,
2013-06-02 08:38:00,73.2,60.3,29.91,NW,304,3.0,3.0,64,0.00,,,0.00,Wunderground v.1.15,2013-06-02 12:38:00,
2013-06-02 08:48:00,73.3,60.4,29.90,WNW,303,4.0,14.0,64,0.00,,,0.00,Wunderground v.1.15,2013-06-02 12:48:00,
2013-06-02 08:58:00,73.2,60.7,29.90,NW,304,3.0,3.0,65,0.00,,,0.00,Wunderground v.1.15,2013-06-02 12:58:00,
2013-06-02 09:13:00,72.1,61.4,29.92,NW,304,2.0,12.0,69,0.00,,,0.00,Wunderground v.1.15,2013-06-02 13:13:00,
2013-06-02 09:23:00,72.0,60.0,29.92,WNW,296,5.0,12.0,66,0.00,,,0.00,Wunderground v.1.15,2013-06-02 13:23:00,
2013-06-02 09:33:00,72.3,60.3,29.92,WNW,299,4.0,12.0,66,0.00,,,0.00,Wunderground v.1.15,2013-06-02 13:33:00,
2013-06-02 09:43:00,72.7,61.1,29.92,WNW,300,4.0,12.0,67,0.00,,,0.00,Wunderground v.1.15,2013-06-02 13:43:00,
2013-06-02 09:53:00,72.1,60.1,29.92,NW,307,7.0,12.0,66,0.00,,,0.00,Wunderground v.1.15,2013-06-02 13:53:00,
2013-06-02 10:08:00,72.8,62.0,29.93,WNW,299,5.0,5.0,69,0.00,,,0.00,Wunderground v.1.15,2013-06-02 14:08:00,
2013-06-02 10:28:00,73.9,61.8,29.92,WNW,290,8.0,8.0,66,0.00,,,0.00,Wunderground v.1.15,2013-06-02 14:28:00,
2013-06-02 10:38:00,73.3,60.8,29.92,WNW,303,8.0,20.0,65,0.00,,,0.00,Wunderground v.1.15,2013-06-02 14:38:00,
2013-06-02 10:53:00,72.3,60.7,29.93,WNW,302,5.0,5.0,67,0.00,,,0.00,Wunderground v.1.15,2013-06-02 14:53:00,
2013-06-02 11:18:00,72.7,60.3,29.93,NW,317,5.0,26.0,65,0.00,,,0.00,Wunderground v.1.15,2013-06-02 15:18:00,
2013-06-02 11:28:00,72.8,60.3,29.93,NW,309,4.0,26.0,65,0.00,,,0.00,Wunderground v.1.15,2013-06-02 15:28:00,
2013-06-02 11:38:00,72.7,61.5,29.93,WNW,293,5.0,5.0,68,0.00,,,0.00,Wunderground v.1.15,2013-06-02 15:38:00,
2013-06-02 11:48:00,72.7,61.1,29.93,NW,305,4.0,26.0,67,0.00,,,0.00,Wunderground v.1.15,2013-06-02 15:48:00,
2013-06-02 12:13:00,72.1,59.2,29.94,WNW,290,7.0,7.0,64,0.00,,,0.00,Wunderground v.1.15,2013-06-02 16:13:00,
2013-06-02 12:28:00,73.3,59.9,29.94,WNW,295,5.0,16.0,63,0.00,,,0.00,Wunderground v.1.15,2013-06-02 16:28:00,
2013-06-02 12:58:00,73.7,59.9,29.94,WNW,296,9.0,9.0,62,0.00,,,0.00,Wunderground v.1.15,2013-06-02 16:58:00,
2013-06-02 13:08:00,73.9,59.6,29.93,WNW,287,9.0,9.0,61,0.00,,,0.00,Wunderground v.1.15,2013-06-02 17:08:00,
2013-06-02 13:18:00,74.6,59.3,29.94,NW,315,7.0,30.0,59,0.00,,,0.00,Wunderground v.1.15,2013-06-02 17:18:00,
2013-06-02 13:28:00,74.6,58.8,29.94,WNW,282,10.0,10.0,58,0.00,,,0.00,Wunderground v.1.15,2013-06-02 17:28:00,
2013-06-02 13:43:00,74.7,59.9,29.93,NW,306,8.0,8.0,60,0.00,,,0.00,Wunderground v.1.15,2013-06-02 17:43:00,
2013-06-02 13:53:00,74.2,59.4,29.94,West,265,7.0,30.0,60,0.00,,,0.00,Wunderground v.1.15,2013-06-02 17:53:00,
2013-06-02 14:27:00,72.8,59.0,29.94,WNW,286,6.0,25.0,62,0.00,,,0.00,Wunderground v.1.15,2013-06-02 18:27:00,
2013-06-02 14:37:00,72.5,59.6,29.95,West,279,5.0,25.0,64,0.00,,,0.00,Wunderground v.1.15,2013-06-02 18:37:00,
2013-06-02 14:57:00,72.0,60.0,29.95,NW,309,5.0,25.0,66,0.00,,,0.00,Wunderground v.1.15,2013-06-02 18:57:00,
2013-06-02 15:07:00,72.1,59.7,29.94,NW,321,6.0,6.0,65,0.00,,,0.00,Wunderground v.1.15,2013-06-02 19:07:00,
2013-06-02 15:17:00,72.5,60.5,29.93,NW,307,5.0,19.0,66,0.00,,,0.00,Wunderground v.1.15,2013-06-02 19:17:00,
2013-06-02 15:37:00,72.8,59.9,29.92,NW,313,6.0,6.0,64,0.00,,,0.00,Wunderground v.1.15,2013-06-02 19:37:00,
2013-06-02 15:47:00,73.5,60.1,29.92,NW,304,6.0,19.0,63,0.00,,,0.00,Wunderground v.1.15,2013-06-02 19:47:00,
2013-06-02 16:12:00,73.5,61.4,29.91,WNW,289,4.0,4.0,66,0.00,,,0.00,Wunderground v.1.15,2013-06-02 20:12:00,
2013-06-02 16:22:00,73.5,61.0,29.92,NNW,338,4.0,12.0,65,0.00,,,0.00,Wunderground v.1.15,2013-06-02 20:22:00,
2013-06-02 16:32:00,73.2,61.2,29.92,NW,306,4.0,4.0,66,0.00,,,0.00,Wunderground v.1.15,2013-06-02 20:32:00,
2013-06-02 16:57:00,72.3,60.3,29.93,WNW,294,5.0,5.0,66,0.00,,,0.00,Wunderground v.1.15,2013-06-02 20:57:00,
2013-06-02 17:07:00,71.8,59.4,29.92,WNW,293,8.0,8.0,65,0.00,,,0.00,Wunderground v.1.15,2013-06-02 21:07:00,
2013-06-02 17:17:00,71.5,60.0,29.92,NNW,329,6.0,16.0,67,0.00,,,0.00,Wunderground v.1.15,2013-06-02 21:17:00,
2013-06-02 17:27:00,70.9,59.0,29.92,NW,315,7.0,16.0,66,0.00,,,0.00,Wunderground v.1.15,2013-06-02 21:27:00,
2013-06-02 17:37:00,70.4,59.3,29.92,NW,309,6.0,6.0,68,0.00,,,0.00,Wunderground v.1.15,2013-06-02 21:37:00,
2013-06-02 17:47:00,69.9,59.3,29.91,WNW,297,2.0,2.0,69,0.00,,,0.00,Wunderground v.1.15,2013-06-02 21:47:00,
2013-06-02 17:57:00,69.6,59.4,29.91,NW,305,2.0,16.0,70,0.00,,,0.00,Wunderground v.1.15,2013-06-02 21:57:00,
2013-06-02 18:12:00,69.4,58.4,29.92,WNW,286,1.0,1.0,68,0.00,,,0.00,Wunderground v.1.15,2013-06-02 22:12:00,
2013-06-02 18:22:00,69.6,58.2,29.92,WNW,288,0.0,16.0,67,0.00,,,0.00,Wunderground v.1.15,2013-06-02 22:22:00,
2013-06-02 18:32:00,69.4,58.0,29.91,WNW,288,1.0,16.0,67,0.00,,,0.00,Wunderground v.1.15,2013-06-02 22:32:00,
2013-06-02 18:42:00,69.1,58.1,29.91,WNW,288,1.0,1.0,68,0.00,,,0.00,Wunderground v.1.15,2013-06-02 22:42:00,
2013-06-02 18:52:00,68.9,57.9,29.90,WNW,288,0.0,16.0,68,0.00,,,0.00,Wunderground v.1.15,2013-06-02 22:52:00,
2013-06-02 19:17:00,68.6,58.4,29.91,WNW,297,0.0,6.0,70,0.00,,,0.00,Wunderground v.1.15,2013-06-02 23:17:00,
2013-06-02 19:27:00,68.3,58.1,29.91,WNW,297,1.0,1.0,70,0.00,,,0.00,Wunderground v.1.15,2013-06-02 23:27:00,
2013-06-02 19:37:00,68.4,57.8,29.92,WNW,298,3.0,3.0,69,0.00,,,0.00,Wunderground v.1.15,2013-06-02 23:37:00,
2013-06-02 19:47:00,68.8,57.4,29.92,NW,310,3.0,3.0,67,0.00,,,0.00,Wunderground v.1.15,2013-06-02 23:47:00,
2013-06-02 19:57:00,68.6,58.0,29.92,NW,310,0.0,6.0,69,0.00,,,0.00,Wunderground v.1.15,2013-06-02 23:57:00,
2013-06-02 20:22:00,67.9,58.1,29.93,NW,310,1.0,1.0,71,0.00,,,0.00,Wunderground v.1.15,2013-06-03 00:22:00,
2013-06-02 20:47:00,68.3,58.5,29.92,NW,310,1.0,1.0,71,0.00,,,0.00,Wunderground v.1.15,2013-06-03 00:47:00,
2013-06-02 20:57:00,68.3,58.5,29.92,NW,310,1.0,1.0,71,0.00,,,0.00,Wunderground v.1.15,2013-06-03 00:57:00,
2013-06-02 21:07:00,68.1,58.3,29.92,NW,310,0.0,7.0,71,0.00,,,0.00,Wunderground v.1.15,2013-06-03 01:07:00,
2013-06-02 21:22:00,67.9,57.8,29.92,NW,310,0.0,7.0,70,0.00,,,0.00,Wunderground v.1.15,2013-06-03 01:22:00,
2013-06-02 21:32:00,67.9,57.8,29.92,NW,305,2.0,7.0,70,0.00,,,0.00,Wunderground v.1.15,2013-06-03 01:32:00,
2013-06-02 21:42:00,67.8,57.7,29.92,NW,313,3.0,3.0,70,0.00,,,0.00,Wunderground v.1.15,2013-06-03 01:42:00,
2013-06-02 21:52:00,67.6,57.9,29.93,NW,313,1.0,1.0,71,0.00,,,0.00,Wunderground v.1.15,2013-06-03 01:52:00,
2013-06-02 22:17:00,67.1,58.2,29.94,NW,313,1.0,1.0,73,0.00,,,0.00,Wunderground v.1.15,2013-06-03 02:17:00,
2013-06-02 22:32:00,67.3,58.3,29.94,NW,311,4.0,4.0,73,0.00,,,0.00,Wunderground v.1.15,2013-06-03 02:32:00,
2013-06-02 22:52:00,67.3,58.7,29.94,NW,309,7.0,7.0,74,0.00,,,0.00,Wunderground v.1.15,2013-06-03 02:52:00,
2013-06-02 23:27:00,66.4,58.6,29.94,WNW,298,2.0,14.0,76,0.00,,,0.00,Wunderground v.1.15,2013-06-03 03:27:00,
2013-06-02 23:37:00,66.4,59.0,29.94,WNW,296,1.0,14.0,77,0.00,,,0.00,Wunderground v.1.15,2013-06-03 03:37:00,
2013-06-02 23:47:00,66.4,59.3,29.94,WNW,286,2.0,14.0,78,0.00,,,0.00,Wunderground v.1.15,2013-06-03 03:47:00,
2013-06-02 23:52:00,66.4,59.3,29.94,WNW,293,3.0,14.0,78,0.00,,,0.00,Wunderground v.1.15,2013-06-03 03:52:00,